Time;durP1;ratioP1;P1;durP2;ratioP2;P2;SDS_P1;SDS_P2;PMS_P1;PMS_P2;Temp;Humidity;BMP_temperature;BMP_pressure;BME280_temperature;BME280_humidity;BME280_pressure;Samples;Min_cycle;Max_cycle;Signal;HPM_P1;HPM_P2
2022/06/01 00:00:30;;;;;;;1.63;1.15;;;;;;;7.65;89.31;98197.03;5047014;28;20075;-69
2022/06/01 00:02:57;;;;;;;2.70;1.83;;;;;;;7.68;89.91;98199.63;5046951;28;20036;-69
2022/06/01 00:05:23;;;;;;;2.25;1.50;;;;;;;7.84;89.91;98198.50;5047022;28;20013;-69
2022/06/01 00:07:49;;;;;;;2.65;1.70;;;;;;;7.93;89.80;98203.59;5046865;28;20044;-69
2022/06/01 00:10:15;;;;;;;11.13;1.40;;;;;;;7.85;88.11;98197.59;5046857;28;20344;-69
2022/06/01 00:12:41;;;;;;;2.97;1.88;;;;;;;7.53;89.34;98189.38;5046763;28;20013;-69
2022/06/01 00:15:08;;;;;;;3.15;1.60;;;;;;;7.51;90.30;98196.41;5046752;28;20317;-69
2022/06/01 00:17:33;;;;;;;1.73;1.10;;;;;;;7.57;90.31;98198.94;5046677;28;20021;-69
2022/06/01 00:19:59;;;;;;;2.30;1.40;;;;;;;7.49;90.46;98192.94;5046652;28;20063;-69
2022/06/01 00:22:24;;;;;;;2.08;1.38;;;;;;;7.41;90.12;98193.94;5046640;28;20017;-69
2022/06/01 00:24:50;;;;;;;2.03;1.40;;;;;;;7.26;89.74;98189.75;5046559;28;20017;-69
2022/06/01 00:27:17;;;;;;;1.40;1.27;;;;;;;7.21;90.74;98186.31;5046565;28;20021;-69
2022/06/01 00:29:43;;;;;;;4.13;1.80;;;;;;;7.15;90.49;98186.41;5046449;28;20025;-69
2022/06/01 00:32:12;;;;;;;1.70;1.38;;;;;;;7.32;91.02;98189.69;5045727;28;20344;-69
2022/06/01 00:34:38;;;;;;;2.58;1.90;;;;;;;7.46;91.02;98195.59;5046449;28;20059;-69
2022/06/01 00:37:04;;;;;;;2.50;1.40;;;;;;;7.51;90.32;98193.78;5046363;28;20048;-69
2022/06/01 00:39:30;;;;;;;2.05;1.35;;;;;;;7.46;90.04;98190.34;5046368;28;20025;-69
2022/06/01 00:42:09;;;;;;;1.88;1.48;;;;;;;7.38;89.80;98188.72;5046496;28;20335;-69
2022/06/01 00:44:35;;;;;;;1.88;1.13;;;;;;;7.23;89.86;98195.03;5046192;28;20041;-69
2022/06/01 00:47:00;;;;;;;1.92;1.40;;;;;;;7.25;90.73;98193.28;5046406;28;20032;-69
2022/06/01 00:49:26;;;;;;;1.63;1.33;;;;;;;7.28;91.07;98202.84;5046190;28;20229;-69
2022/06/01 00:51:52;;;;;;;1.85;1.30;;;;;;;6.99;90.76;98186.66;5046294;28;20057;-69
2022/06/01 00:54:18;;;;;;;2.75;1.50;;;;;;;6.92;90.29;98193.69;5046043;28;20025;-69
2022/06/01 00:56:53;;;;;;;5.85;1.65;;;;;;;7.03;91.37;98193.56;5046045;28;20025;-69
2022/06/01 00:59:22;;;;;;;3.17;1.73;;;;;;;7.12;91.79;98194.28;5046182;28;20087;-69
2022/06/01 01:01:49;;;;;;;2.08;1.35;;;;;;;7.08;91.41;98192.59;5046047;28;20201;-69
2022/06/01 01:04:14;;;;;;;1.30;1.02;;;;;;;7.15;91.14;98191.63;5046018;28;20033;-69
2022/06/01 01:06:43;;;;;;;2.38;1.40;;;;;;;7.09;90.80;98186.47;5046112;28;20021;-69
2022/06/01 01:09:10;;;;;;;2.55;1.60;;;;;;;6.89;90.90;98183.25;5045929;28;20021;-69
2022/06/01 01:11:42;;;;;;;2.67;1.50;;;;;;;6.96;91.62;98184.91;5045806;28;20086;-69
2022/06/01 01:14:08;;;;;;;6.18;1.80;;;;;;;6.99;91.60;98184.88;5045962;28;20214;-69
2022/06/01 01:16:35;;;;;;;2.28;1.52;;;;;;;6.97;92.29;98181.44;5046046;28;20056;-69
2022/06/01 01:19:02;;;;;;;6.30;1.67;;;;;;;7.05;92.34;98179.56;5045748;28;20048;-69
2022/06/01 01:21:50;;;;;;;1.90;1.45;;;;;;;6.96;91.60;98179.66;5045637;28;20030;-69
2022/06/01 01:24:35;;;;;;;1.65;1.30;;;;;;;6.84;92.42;98185.06;5045602;28;20032;-69
2022/06/01 01:27:00;;;;;;;2.08;1.60;;;;;;;6.85;93.00;98186.81;5045554;28;20256;-69
2022/06/01 01:29:32;;;;;;;2.25;1.58;;;;;;;6.79;92.90;98186.88;5045543;28;20033;-69
2022/06/01 01:31:58;;;;;;;2.47;1.48;;;;;;;6.87;93.43;98184.16;5045490;28;20085;-69
2022/06/01 01:34:24;;;;;;;2.08;1.55;;;;;;;7.05;93.24;98195.25;5045412;28;20029;-69
2022/06/01 01:36:54;;;;;;;2.13;1.45;;;;;;;7.15;92.83;98186.41;5045641;28;20025;-69
2022/06/01 01:39:19;;;;;;;1.42;1.20;;;;;;;7.19;92.62;98193.34;5045325;28;20025;-69
2022/06/01 01:41:53;;;;;;;1.83;1.40;;;;;;;7.22;92.87;98193.31;5045273;28;20190;-69
2022/06/01 01:44:37;;;;;;;2.33;1.40;;;;;;;7.24;93.58;98204.63;5044262;28;20057;-69
2022/06/01 01:47:03;;;;;;;1.73;1.38;;;;;;;7.32;92.77;98200.16;5045186;28;20390;-69
2022/06/01 01:49:34;;;;;;;2.92;1.45;;;;;;;7.28;91.88;98193.22;5045037;28;20041;-69
2022/06/01 01:52:05;;;;;;;3.77;1.50;;;;;;;6.90;92.52;98185.00;5045119;28;20033;-69
2022/06/01 01:54:43;;;;;;;3.22;1.85;;;;;;;6.96;93.61;98186.69;5045038;28;20029;-69
2022/06/01 01:57:14;;;;;;;0.77;0.77;;;;;;;6.98;93.88;98188.38;5045061;28;20091;-69
2022/06/01 01:59:50;;;;;;;1.65;1.30;;;;;;;6.89;94.71;98182.41;5044834;28;20033;-69
2022/06/01 02:02:35;;;;;;;1.70;1.17;;;;;;;6.95;94.69;98182.31;5044780;28;20317;-69
2022/06/01 02:08:09;;;;;;;1.77;1.52;;;;;;;6.94;93.82;98191.94;5044843;28;20036;-69
2022/06/01 02:13:21;;;;;;;1.33;1.20;;;;;;;6.99;93.62;98195.34;5044691;28;20033;-69
2022/06/01 02:15:50;;;;;;;2.42;1.40;;;;;;;6.99;93.21;98192.72;5044716;28;20029;-69
2022/06/01 02:18:25;;;;;;;2.25;1.30;;;;;;;6.96;92.51;98189.28;5044862;28;20021;-69
2022/06/01 02:21:04;;;;;;;2.10;1.40;;;;;;;6.80;92.67;98188.59;5044419;28;20017;-69
2022/06/01 02:23:31;;;;;;;2.65;1.60;;;;;;;6.82;92.92;98192.06;5044651;28;20107;-69
2022/06/01 02:25:59;;;;;;;2.40;1.65;;;;;;;6.88;92.88;98186.75;5044620;28;20017;-69
2022/06/01 02:28:25;;;;;;;2.03;1.45;;;;;;;6.82;93.33;98181.59;5044517;28;20028;-69
2022/06/01 02:30:52;;;;;;;1.80;1.23;;;;;;;6.81;93.10;98174.66;5044259;28;20252;-69
2022/06/01 02:33:22;;;;;;;2.55;1.70;;;;;;;6.71;93.17;98182.63;5044216;28;20217;-69
2022/06/01 02:35:51;;;;;;;1.42;1.20;;;;;;;6.72;93.99;98182.59;5044234;28;20064;-69
2022/06/01 02:38:28;;;;;;;1.42;1.20;;;;;;;6.88;94.06;98197.22;5044366;28;20088;-69
2022/06/01 02:40:54;;;;;;;2.78;1.27;;;;;;;6.96;93.74;98195.38;5044395;28;20025;-69
2022/06/01 02:43:20;;;;;;;1.70;1.33;;;;;;;6.92;93.34;98198.91;5044015;28;20087;-69
2022/06/01 02:45:46;;;;;;;2.88;1.65;;;;;;;6.78;91.96;98190.38;5044100;28;20063;-69
2022/06/01 02:48:11;;;;;;;2.17;1.60;;;;;;;6.45;92.95;98188.09;5044074;28;20029;-69
2022/06/01 02:50:37;;;;;;;1.60;1.30;;;;;;;6.40;94.10;98187.31;5043933;28;20048;-69
2022/06/01 02:53:05;;;;;;;2.05;1.40;;;;;;;6.44;94.75;98200.34;5043999;28;20275;-69
2022/06/01 02:55:31;;;;;;;1.17;1.08;;;;;;;6.60;95.13;98195.81;5043574;28;20104;-69
2022/06/01 02:57:57;;;;;;;3.05;1.67;;;;;;;6.64;94.55;98192.25;5043915;28;20036;-69
2022/06/01 03:00:30;;;;;;;3.38;1.65;;;;;;;6.66;94.65;98198.34;5043879;28;20047;-69
2022/06/01 03:02:58;;;;;;;2.85;1.63;;;;;;;6.58;95.02;98197.56;5043731;28;20265;-69
2022/06/01 03:05:30;;;;;;;4.05;1.60;;;;;;;6.67;94.74;98202.69;5043858;28;20087;-69
2022/06/01 03:07:56;;;;;;;2.47;1.63;;;;;;;6.64;94.66;98200.97;5043856;28;20083;-69
2022/06/01 03:10:22;;;;;;;2.33;1.52;;;;;;;6.72;94.24;98208.75;5043763;28;20190;-69
2022/06/01 03:12:48;;;;;;;5.68;1.63;;;;;;;6.76;93.84;98199.97;5043793;28;20028;-69
2022/06/01 03:15:15;;;;;;;1.65;1.35;;;;;;;6.68;93.43;98199.22;5043766;28;20029;-69
2022/06/01 03:17:41;;;;;;;1.75;1.10;;;;;;;6.68;93.09;98199.22;5043701;28;20025;-69
2022/06/01 03:20:08;;;;;;;2.42;1.42;;;;;;;6.63;92.28;98206.22;5043738;28;20059;-69
2022/06/01 03:22:38;;;;;;;1.65;1.30;;;;;;;6.32;91.96;98194.34;5043608;28;20067;-69
2022/06/01 03:25:06;;;;;;;3.75;1.60;;;;;;;6.40;92.00;98195.16;5043610;28;20221;-69
2022/06/01 03:27:32;;;;;;;1.90;1.30;;;;;;;6.23;92.64;98189.19;5043663;28;20093;-69
2022/06/01 03:29:57;;;;;;;1.73;1.38;;;;;;;6.24;93.13;98190.94;5043634;28;20216;-69
2022/06/01 03:32:23;;;;;;;1.80;1.25;;;;;;;6.24;93.30;98190.94;5043598;28;20022;-69
2022/06/01 03:34:48;;;;;;;4.28;1.70;;;;;;;6.18;93.41;98201.47;5043590;28;20391;-69
2022/06/01 03:37:14;;;;;;;2.55;1.48;;;;;;;6.29;93.71;98194.38;5043600;28;20097;-71
2022/06/01 03:39:39;;;;;;;1.60;1.50;;;;;;;5.99;93.10;98189.44;5043548;28;20078;-69
2022/06/01 03:42:05;;;;;;;1.58;1.25;;;;;;;5.99;94.74;98195.53;5043717;28;20044;-69
2022/06/01 03:47:14;;;;;;;3.13;1.40;;;;;;;6.01;94.60;98192.91;5043495;28;20099;-69
2022/06/01 03:49:40;;;;;;;1.63;1.33;;;;;;;6.12;94.17;98193.66;5043348;28;20245;-69
2022/06/01 03:52:07;;;;;;;1.75;1.42;;;;;;;6.13;94.11;98195.38;5043684;28;20081;-69
2022/06/01 03:54:32;;;;;;;2.45;1.77;;;;;;;5.95;93.55;98183.34;5043674;28;20022;-69
2022/06/01 03:56:58;;;;;;;2.80;1.67;;;;;;;5.86;94.10;98183.44;5043405;28;20220;-69
2022/06/01 03:59:23;;;;;;;1.77;1.35;;;;;;;5.86;94.37;98188.66;5043329;28;20097;-69
2022/06/01 04:01:49;;;;;;;1.38;1.20;;;;;;;5.90;94.11;98194.72;5043174;28;20063;-69
2022/06/01 04:04:14;;;;;;;1.30;1.20;;;;;;;5.83;94.55;98190.44;5043391;28;20029;-69
2022/06/01 04:06:40;;;;;;;3.40;1.40;;;;;;;5.72;96.70;98197.44;5043382;28;20041;-69
2022/06/01 04:09:05;;;;;;;2.33;1.60;;;;;;;5.92;96.41;98192.97;5046455;28;20025;-69
2022/06/01 04:11:31;;;;;;;1.85;1.33;;;;;;;6.06;95.14;98201.56;5046924;28;20021;-69
2022/06/01 04:13:56;;;;;;;1.75;1.20;;;;;;;5.97;94.67;98201.63;5046830;28;20021;-69
2022/06/01 04:16:21;;;;;;;3.72;1.83;;;;;;;6.09;94.62;98198.91;5046793;28;20064;-69
2022/06/01 04:18:47;;;;;;;2.08;1.30;;;;;;;6.04;94.62;98200.69;5046740;28;20025;-69
2022/06/01 04:21:15;;;;;;;2.80;1.52;;;;;;;6.21;94.52;98206.66;5053055;28;20213;-69
2022/06/01 04:23:40;;;;;;;1.77;1.35;;;;;;;6.27;94.17;98210.06;5064253;28;20331;-69
2022/06/01 04:26:06;;;;;;;2.40;1.50;;;;;;;6.29;94.02;98210.06;5053723;28;20028;-69
2022/06/01 04:28:31;;;;;;;1.90;1.48;;;;;;;6.34;93.37;98210.88;5059387;28;20025;-69
2022/06/01 04:30:56;;;;;;;2.63;1.15;;;;;;;6.51;93.41;98216.81;5058333;28;20048;-69
2022/06/01 04:33:22;;;;;;;2.35;1.52;;;;;;;6.88;92.73;98204.19;5053946;28;20021;-69
2022/06/01 04:35:48;;;;;;;1.42;1.15;;;;;;;7.49;90.05;98213.88;5056449;28;20100;-69
2022/06/01 04:38:13;;;;;;;3.83;1.33;;;;;;;8.10;87.56;98225.16;5049291;28;20375;-69
2022/06/01 04:40:44;;;;;;;2.67;1.67;;;;;;;9.22;83.22;98224.00;5046558;28;20025;-69
2022/06/01 04:43:14;;;;;;;1.50;1.23;;;;;;;9.95;80.05;98221.47;5046281;28;20064;-69
2022/06/01 04:45:40;;;;;;;1.40;1.20;;;;;;;10.36;77.94;98231.03;5046223;28;20021;-69
2022/06/01 04:48:06;;;;;;;1.73;1.23;;;;;;;10.79;75.64;98236.94;5046180;28;20347;-69
2022/06/01 04:50:31;;;;;;;0.82;0.82;;;;;;;11.37;74.25;98237.06;5046077;28;20045;-69
2022/06/01 04:52:56;;;;;;;1.30;1.20;;;;;;;11.89;72.99;98241.66;5046114;28;20017;-69
2022/06/01 04:55:22;;;;;;;1.00;0.90;;;;;;;12.23;71.46;98237.91;5046062;28;20021;-69
2022/06/01 04:57:48;;;;;;;1.20;1.10;;;;;;;12.40;70.03;98235.59;5046036;28;20025;-69
2022/06/01 05:00:14;;;;;;;1.75;1.20;;;;;;;12.58;68.56;98245.53;5046034;28;20281;-69
2022/06/01 05:02:39;;;;;;;1.50;1.02;;;;;;;12.95;68.61;98235.44;5045808;28;20021;-69
2022/06/01 05:05:05;;;;;;;1.35;1.10;;;;;;;13.29;67.49;98244.84;5045839;28;20328;-69
2022/06/01 05:07:31;;;;;;;1.30;1.20;;;;;;;13.53;67.38;98243.94;5045866;28;20021;-69
2022/06/01 05:09:56;;;;;;;1.48;1.05;;;;;;;13.89;66.80;98245.22;5045793;28;20025;-69
2022/06/01 05:12:22;;;;;;;1.25;1.02;;;;;;;14.09;67.56;98245.28;5045732;28;20068;-69
2022/06/01 05:14:47;;;;;;;1.38;1.05;;;;;;;14.42;67.41;98250.13;5045697;28;20021;-69
2022/06/01 05:17:12;;;;;;;2.10;1.30;;;;;;;14.85;66.74;98243.91;5045589;28;20021;-69
2022/06/01 05:19:38;;;;;;;1.75;1.02;;;;;;;15.04;65.19;98244.84;5045391;28;20076;-69
2022/06/01 05:22:04;;;;;;;1.67;1.20;;;;;;;15.07;65.44;98244.72;5045526;28;20218;-70
2022/06/01 05:24:29;;;;;;;3.00;1.60;;;;;;;15.41;64.57;98250.28;5045477;28;20324;-70
2022/06/01 05:26:54;;;;;;;2.05;1.13;;;;;;;15.54;65.23;98247.94;5045445;28;20028;-70
2022/06/01 05:29:22;;;;;;;1.60;1.13;;;;;;;15.71;63.70;98253.34;5045406;28;20025;-70
2022/06/01 05:31:47;;;;;;;1.83;0.80;;;;;;;16.18;62.76;98260.81;5045566;28;20029;-70
2022/06/01 05:34:13;;;;;;;0.90;0.85;;;;;;;16.41;61.19;98255.28;5045559;28;20018;-70
2022/06/01 05:36:38;;;;;;;1.73;1.40;;;;;;;16.63;61.66;98258.63;5045278;28;20190;-70
2022/06/01 05:39:04;;;;;;;3.17;1.20;;;;;;;16.85;61.43;98264.59;5045327;28;20152;-70
2022/06/01 05:41:30;;;;;;;2.95;0.95;;;;;;;17.30;60.28;98260.53;5045098;28;20040;-70
2022/06/01 05:43:55;;;;;;;1.83;1.30;;;;;;;17.41;61.22;98264.34;5045137;28;20360;-70
2022/06/01 05:46:23;;;;;;;2.58;1.40;;;;;;;17.95;60.09;98265.91;5045042;28;20025;-70
2022/06/01 05:48:48;;;;;;;2.25;1.40;;;;;;;17.89;59.85;98255.56;5045052;28;20335;-70
2022/06/01 05:51:14;;;;;;;2.33;1.38;;;;;;;18.10;59.34;98255.25;5044801;28;20068;-70
2022/06/01 05:53:40;;;;;;;1.80;1.30;;;;;;;18.39;58.21;98251.00;5044948;28;20032;-70
2022/06/01 05:56:05;;;;;;;3.97;1.90;;;;;;;18.96;57.86;98255.66;5044886;28;20032;-70
2022/06/01 05:58:32;;;;;;;2.80;1.27;;;;;;;19.04;57.80;98250.69;5044847;28;20212;-70
2022/06/01 06:01:01;;;;;;;2.35;1.35;;;;;;;19.22;56.43;98260.28;5044807;28;20352;-70
2022/06/01 06:03:27;;;;;;;2.33;1.30;;;;;;;19.83;56.00;98268.13;5044608;28;20029;-70
2022/06/01 06:06:13;;;;;;;2.10;1.40;;;;;;;19.97;56.26;98262.78;5044749;28;20032;-70
2022/06/01 06:08:40;;;;;;;2.13;1.42;;;;;;;20.35;56.79;98262.09;5044717;28;20096;-70
2022/06/01 06:11:06;;;;;;;2.58;1.50;;;;;;;20.70;55.78;98273.19;5044605;28;20017;-70
2022/06/01 06:13:35;;;;;;;2.10;1.20;;;;;;;21.01;54.71;98263.06;5044673;28;20320;-70
2022/06/01 06:16:03;;;;;;;4.05;1.42;;;;;;;21.51;54.92;98275.69;5044510;28;20022;-70
2022/06/01 06:18:29;;;;;;;1.85;1.40;;;;;;;21.86;54.46;98271.44;5044434;28;20021;-70
2022/06/01 06:20:55;;;;;;;3.47;1.60;;;;;;;21.89;51.35;98283.78;5044455;28;20072;-70
2022/06/01 06:23:21;;;;;;;2.50;1.42;;;;;;;22.18;50.72;98280.72;5044368;28;20333;-70
2022/06/01 06:25:47;;;;;;;2.08;1.52;;;;;;;22.28;48.03;98280.94;5044604;28;20026;-70
2022/06/01 06:28:12;;;;;;;5.15;1.50;;;;;;;22.79;48.34;98287.91;5044348;28;20025;-70
2022/06/01 06:30:38;;;;;;;1.73;1.27;;;;;;;23.11;46.72;98297.09;5043769;28;20247;-70
2022/06/01 06:33:05;;;;;;;1.45;1.10;;;;;;;23.12;45.41;98288.06;5044614;28;20205;-70
2022/06/01 06:35:31;;;;;;;4.80;1.40;;;;;;;23.22;45.97;98291.78;5044265;28;20068;-70
2022/06/01 06:37:57;;;;;;;1.48;1.10;;;;;;;23.58;43.96;98296.22;5044218;28;20025;-70
2022/06/01 06:40:22;;;;;;;3.85;1.50;;;;;;;23.99;43.27;98304.66;5044399;28;20017;-70
2022/06/01 06:42:48;;;;;;;2.03;1.40;;;;;;;23.87;42.83;98301.06;5044115;28;20343;-70
2022/06/01 06:45:13;;;;;;;3.40;1.45;;;;;;;24.10;43.29;98310.88;5044214;28;20027;-70
2022/06/01 06:47:39;;;;;;;1.95;1.17;;;;;;;24.35;42.60;98302.59;5044137;28;20025;-70
2022/06/01 06:50:07;;;;;;;2.95;1.15;;;;;;;24.79;42.60;98313.34;5044176;28;20139;-70
2022/06/01 06:52:32;;;;;;;2.42;1.42;;;;;;;24.79;41.03;98307.09;5044176;28;20048;-70
2022/06/01 06:54:58;;;;;;;5.43;1.95;;;;;;;24.63;39.68;98307.47;5044136;28;20022;-70
2022/06/01 06:57:24;;;;;;;3.83;0.95;;;;;;;25.07;39.95;98301.16;5044168;28;20021;-70
2022/06/01 06:59:49;;;;;;;1.20;1.00;;;;;;;24.88;40.21;98304.53;5044166;28;20021;-70
2022/06/01 07:02:16;;;;;;;2.88;1.20;;;;;;;25.16;38.62;98311.16;5043984;28;20315;-70
2022/06/01 07:04:42;;;;;;;1.85;0.90;;;;;;;25.16;38.01;98301.22;5044000;28;20060;-70
2022/06/01 07:07:07;;;;;;;1.38;0.60;;;;;;;25.10;37.89;98312.53;5044051;28;20021;-70
2022/06/01 07:09:33;;;;;;;2.30;1.38;;;;;;;24.72;37.57;98300.50;5043955;28;20217;-70
2022/06/01 07:11:58;;;;;;;2.28;1.10;;;;;;;25.27;38.72;98313.81;5044115;28;20024;-70
2022/06/01 07:14:24;;;;;;;1.58;0.90;;;;;;;25.44;39.11;98309.75;5043942;28;20021;-70
2022/06/01 07:16:49;;;;;;;1.65;0.93;;;;;;;25.56;37.87;98303.31;5044016;28;20025;-70
2022/06/01 07:19:14;;;;;;;1.38;0.82;;;;;;;25.40;36.86;98309.13;5044152;28;20253;-70
2022/06/01 07:21:41;;;;;;;1.55;0.93;;;;;;;24.93;38.24;98304.97;5043976;28;20075;-70
2022/06/01 07:24:07;;;;;;;1.45;1.00;;;;;;;25.02;39.29;98315.00;5043746;28;20272;-70
2022/06/01 07:26:43;;;;;;;1.75;1.00;;;;;;;25.47;38.73;98314.88;5043828;28;20025;-70
2022/06/01 07:29:10;;;;;;;3.72;1.20;;;;;;;24.88;39.07;98307.22;5043685;28;20021;-70
2022/06/01 07:31:36;;;;;;;1.40;1.00;;;;;;;25.57;38.74;98318.50;5043814;28;20092;-70
2022/06/01 07:34:02;;;;;;;1.35;0.65;;;;;;;26.04;37.82;98315.31;5043763;28;20344;-70
2022/06/01 07:36:29;;;;;;;1.80;1.20;;;;;;;26.02;38.09;98314.59;5043759;28;20021;-70
2022/06/01 07:44:43;;;;;;;1.63;0.80;;;;;;;26.50;35.76;98312.97;5045965;28;20033;-70
2022/06/01 07:47:11;;;;;;;1.13;0.63;;;;;;;27.21;35.66;98331.72;5047463;28;20309;-70
2022/06/01 07:49:37;;;;;;;0.88;0.68;;;;;;;27.21;35.01;98326.31;5047191;28;20132;-70
2022/06/01 07:52:06;;;;;;;2.08;0.90;;;;;;;25.43;37.40;98314.25;5047275;28;20029;-70
2022/06/01 07:54:32;;;;;;;2.03;0.88;;;;;;;26.13;36.46;98322.63;5047293;28;20064;-70
2022/06/01 07:56:57;;;;;;;0.90;0.70;;;;;;;26.71;35.31;98332.72;5047244;28;20317;-70
2022/06/01 07:59:22;;;;;;;1.42;0.93;;;;;;;25.91;35.84;98328.13;5047189;28;20029;-70
2022/06/01 08:01:48;;;;;;;2.40;0.80;;;;;;;26.45;34.76;98336.84;5047114;28;20044;-70
2022/06/01 08:04:16;;;;;;;1.27;1.00;;;;;;;26.37;36.00;98331.25;5047145;28;20092;-70
2022/06/01 08:06:41;;;;;;;1.38;1.10;;;;;;;25.97;36.63;98327.59;5047092;28;20229;-70
2022/06/01 08:09:07;;;;;;;2.55;1.00;;;;;;;25.21;38.36;98331.34;5047035;28;20025;-70
2022/06/01 08:14:17;;;;;;;3.60;1.00;;;;;;;26.52;35.08;98332.59;5046960;28;20097;-70
2022/06/01 08:16:46;;;;;;;1.77;1.00;;;;;;;26.91;35.61;98339.88;5046936;28;20320;-70
2022/06/01 08:19:13;;;;;;;1.40;1.10;;;;;;;26.54;36.29;98336.03;5046790;28;20026;-70
2022/06/01 08:21:38;;;;;;;2.42;1.08;;;;;;;25.71;37.81;98328.94;5046667;28;20026;-70
2022/06/01 08:24:05;;;;;;;3.60;1.08;;;;;;;25.98;37.05;98332.03;5046771;28;20359;-70
2022/06/01 08:26:32;;;;;;;5.80;1.40;;;;;;;26.71;35.49;98338.13;5046774;28;20088;-70
2022/06/01 08:28:58;;;;;;;2.42;1.42;;;;;;;26.73;37.14;98341.50;5046630;28;20273;-70
2022/06/01 08:31:27;;;;;;;1.50;0.93;;;;;;;26.97;36.61;98339.31;5046578;28;20198;-70
2022/06/01 08:34:03;;;;;;;2.08;1.10;;;;;;;27.54;37.19;98350.25;5046664;28;20082;-70
2022/06/01 08:36:29;;;;;;;2.83;1.23;;;;;;;27.83;33.32;98342.13;5046452;28;20028;-70
2022/06/01 08:38:54;;;;;;;2.42;0.90;;;;;;;27.73;35.38;98343.97;5046363;28;20029;-70
2022/06/01 08:41:25;;;;;;;2.30;1.10;;;;;;;27.29;34.84;98340.00;5046212;28;20076;-70
2022/06/01 08:43:55;;;;;;;4.20;1.00;;;;;;;27.35;33.64;98339.44;5046267;28;20025;-70
2022/06/01 08:46:23;;;;;;;1.65;1.10;;;;;;;27.23;35.15;98336.00;5046271;28;20068;-70
2022/06/01 08:49:28;;;;;;;2.65;1.00;;;;;;;27.45;35.46;98345.69;5046180;28;20075;-71
2022/06/01 08:51:54;;;;;;;2.58;1.00;;;;;;;27.69;35.43;98343.44;5044382;28;20269;-71
2022/06/01 08:54:21;;;;;;;2.10;1.00;;;;;;;27.76;33.60;98336.44;5043839;28;20033;-71
2022/06/01 08:57:10;;;;;;;1.25;0.73;;;;;;;28.05;33.15;98344.56;5044303;28;20333;-71
2022/06/01 09:00:04;;;;;;;1.63;0.82;;;;;;;27.73;33.04;98344.84;5044275;28;20104;-71
2022/06/01 09:02:52;;;;;;;0.95;0.80;;;;;;;26.99;35.30;98334.66;5044053;28;20033;-71
2022/06/01 09:05:47;;;;;;;3.58;1.13;;;;;;;26.48;36.26;98339.28;5044106;28;20096;-71
2022/06/01 09:08:24;;;;;;;1.75;1.00;;;;;;;26.37;36.46;98350.13;5044183;28;20260;-71
2022/06/01 09:10:58;;;;;;;2.35;1.73;;;;;;;25.83;38.57;98344.09;5044184;28;20140;-71
2022/06/01 09:13:31;;;;;;;4.28;1.52;;;;;;;25.71;39.10;98351.38;5044055;28;20096;-71
2022/06/01 09:16:25;;;;;;;1.10;0.95;;;;;;;25.66;37.78;98341.97;5044017;28;20358;-71
2022/06/01 09:18:53;;;;;;;3.72;1.40;;;;;;;26.39;35.92;98346.31;5040572;28;20101;-71
2022/06/01 09:24:34;;;;;;;4.32;1.35;;;;;;;27.43;34.88;98363.94;5043930;28;20027;-71
2022/06/01 09:27:12;;;;;;;5.57;1.40;;;;;;;27.16;35.19;98356.44;5045716;28;20348;-71
2022/06/01 09:29:47;;;;;;;2.10;1.00;;;;;;;27.20;35.36;98357.00;5045516;28;20049;-71
2022/06/01 09:32:29;;;;;;;1.55;1.10;;;;;;;27.05;35.45;98353.00;5045445;28;20032;-71
2022/06/01 09:35:00;;;;;;;3.33;1.35;;;;;;;26.81;36.04;98355.19;5045461;28;20026;-71
2022/06/01 09:37:31;;;;;;;2.90;1.33;;;;;;;26.84;37.37;98363.03;5045572;28;20018;-71
2022/06/01 09:40:00;;;;;;;2.83;1.17;;;;;;;27.38;35.30;98359.91;5045620;28;20430;-71
2022/06/01 09:42:38;;;;;;;3.13;1.40;;;;;;;27.53;34.98;98359.38;5045233;28;20022;-71
2022/06/01 09:45:23;;;;;;;3.63;1.20;;;;;;;26.38;37.04;98351.84;5045204;28;20025;-71
2022/06/01 09:47:50;;;;;;;2.25;1.60;;;;;;;25.82;37.85;98348.66;5045159;28;20028;-71
2022/06/01 09:50:18;;;;;;;3.67;1.42;;;;;;;25.50;38.30;98357.75;5044846;28;20082;-71
2022/06/01 09:52:44;;;;;;;5.63;1.85;;;;;;;26.38;36.10;98362.63;5044997;28;20033;-71
2022/06/01 09:55:20;;;;;;;4.25;1.58;;;;;;;27.00;34.43;98360.66;5045057;28;20048;-71
2022/06/01 10:06:05;;;;;;;3.05;1.25;;;;;;;27.54;35.80;98352.97;5044916;28;20021;-71
2022/06/01 10:06:33;;;;;;;2.33;1.10;;;;;;;27.63;34.59;98349.41;5043918;28;20035;-71
2022/06/01 10:09:01;;;;;;;3.70;1.00;;;;;;;27.73;36.21;98347.56;5044784;28;20401;-71
2022/06/01 10:11:32;;;;;;;1.45;1.05;;;;;;;27.65;33.74;98352.81;5044728;28;20021;-71
2022/06/01 10:14:12;;;;;;;1.80;1.17;;;;;;;26.90;36.80;98338.19;5044719;28;20132;-71
2022/06/01 10:16:49;;;;;;;3.63;1.13;;;;;;;27.39;35.20;98345.44;5044635;28;20032;-71
2022/06/01 10:19:18;;;;;;;4.47;1.17;;;;;;;26.94;36.10;98339.59;5044593;28;20352;-71
2022/06/01 10:21:57;;;;;;;2.65;1.15;;;;;;;27.09;36.49;98338.22;5044542;28;20231;-71
2022/06/01 10:24:34;;;;;;;1.70;0.93;;;;;;;25.22;38.32;98329.53;5044459;28;20399;-71
2022/06/01 10:27:01;;;;;;;5.07;1.10;;;;;;;25.23;39.63;98313.22;5044396;28;20087;-71
2022/06/01 10:29:37;;;;;;;3.65;1.15;;;;;;;25.30;39.42;98327.88;5044405;28;20217;-71
2022/06/01 10:32:15;;;;;;;1.92;1.15;;;;;;;26.23;38.84;98339.72;5044563;28;20064;-71
2022/06/01 10:35:07;;;;;;;3.95;0.90;;;;;;;26.30;38.87;98339.03;5044498;28;20076;-71
2022/06/01 10:38:03;;;;;;;1.80;1.20;;;;;;;26.06;38.88;98329.50;5044220;28;20021;-71
2022/06/01 10:40:36;;;;;;;6.03;1.30;;;;;;;26.08;38.42;98338.34;5043923;28;20111;-71
2022/06/01 10:43:17;;;;;;;2.97;1.08;;;;;;;25.79;38.63;98329.16;5044015;28;20025;-71
2022/06/01 10:45:49;;;;;;;1.58;0.98;;;;;;;25.17;38.63;98312.88;5044209;28;20100;-71
2022/06/01 10:48:36;;;;;;;1.45;0.73;;;;;;;26.46;38.04;98343.94;5044173;28;20084;-71
2022/06/01 10:51:16;;;;;;;1.50;1.20;;;;;;;26.49;39.37;98330.19;5043868;28;20042;-71
2022/06/01 10:54:03;;;;;;;2.25;1.02;;;;;;;24.78;38.71;98317.00;5043992;28;20089;-71
2022/06/01 10:56:30;;;;;;;3.30;0.98;;;;;;;25.82;39.70;98337.00;5043952;28;20097;-71
2022/06/01 10:59:01;;;;;;;1.92;0.95;;;;;;;25.70;40.41;98332.66;5044194;28;20025;-71
2022/06/01 11:01:36;;;;;;;1.70;1.00;;;;;;;26.14;40.39;98332.41;5043836;28;20325;-71
2022/06/01 11:04:31;;;;;;;3.47;1.27;;;;;;;26.12;40.32;98328.97;5043844;28;20096;-71
2022/06/01 11:07:25;;;;;;;3.85;1.25;;;;;;;26.08;38.49;98322.16;5043073;28;20059;-71
2022/06/01 11:10:29;;;;;;;2.60;1.10;;;;;;;25.65;39.56;98321.41;5043813;28;20025;-71
2022/06/01 11:13:17;;;;;;;1.17;0.90;;;;;;;25.53;39.90;98314.38;5043826;28;20041;-71
2022/06/01 11:16:04;;;;;;;2.70;1.45;;;;;;;25.35;37.90;98326.69;5043785;28;20025;-71
2022/06/01 11:18:41;;;;;;;2.35;1.20;;;;;;;24.64;39.29;98322.66;5047875;28;20031;-71
2022/06/01 11:21:13;;;;;;;7.90;0.98;;;;;;;24.85;40.44;98312.84;5047903;28;20059;-71
2022/06/01 11:23:45;;;;;;;2.85;1.25;;;;;;;24.89;40.54;98308.03;5047758;28;20025;-71
2022/06/01 11:26:26;;;;;;;3.13;1.27;;;;;;;25.27;39.96;98324.59;5047974;28;20221;-71
2022/06/01 11:29:25;;;;;;;3.13;0.90;;;;;;;25.59;40.09;98330.00;5047720;28;20220;-71
2022/06/01 11:31:54;;;;;;;1.00;0.80;;;;;;;25.28;38.85;98316.38;5047618;28;20022;-71
2022/06/01 11:34:27;;;;;;;3.28;1.00;;;;;;;25.30;40.58;98327.88;5047642;28;20032;-71
2022/06/01 11:37:01;;;;;;;0.90;0.70;;;;;;;24.77;40.69;98322.53;5047568;28;20025;-70
2022/06/01 11:39:39;;;;;;;2.97;1.10;;;;;;;25.02;39.76;98315.00;5047767;28;20278;-70
2022/06/01 11:42:23;;;;;;;1.80;0.88;;;;;;;24.74;40.89;98325.47;5047370;28;20032;-70
2022/06/01 11:44:58;;;;;;;2.97;1.00;;;;;;;24.49;41.51;98323.00;5047484;28;20092;-70
2022/06/01 11:47:25;;;;;;;2.30;1.10;;;;;;;24.24;40.86;98321.44;5047388;28;20044;-70
2022/06/01 11:50:16;;;;;;;4.00;0.75;;;;;;;24.32;41.67;98321.66;5047170;28;20109;-70
2022/06/01 11:53:07;;;;;;;4.28;1.17;;;;;;;24.16;41.89;98317.59;5047176;28;20033;-70
2022/06/01 11:55:36;;;;;;;3.60;1.15;;;;;;;24.23;43.28;98314.31;5047221;28;20029;-70
2022/06/01 11:58:28;;;;;;;2.50;1.02;;;;;;;24.28;42.23;98312.13;5047175;28;20029;-70
2022/06/01 12:01:16;;;;;;;1.05;0.80;;;;;;;24.03;42.25;98306.97;5047067;28;20025;-70
2022/06/01 12:04:09;;;;;;;5.07;1.58;;;;;;;24.04;41.87;98313.22;5047006;28;20025;-70
2022/06/01 12:06:44;;;;;;;1.15;0.82;;;;;;;23.77;42.65;98304.56;5047266;28;20021;-70
2022/06/01 12:09:19;;;;;;;2.65;1.05;;;;;;;23.89;42.54;98304.47;5047032;28;20036;-70
2022/06/01 12:11:46;;;;;;;1.52;0.63;;;;;;;23.76;43.68;98309.09;5046922;28;20021;-70
2022/06/01 12:14:40;;;;;;;2.78;1.25;;;;;;;23.72;40.81;98296.00;5046799;28;20028;-70
2022/06/01 12:17:18;;;;;;;2.22;0.98;;;;;;;23.52;41.53;98289.50;5046950;28;20101;-70